createdAt,value
2024-04-24T00:01:18.184Z,100063.79
2024-04-24T00:06:23.140Z,100059.84
2024-04-24T00:11:27.310Z,100053.50
2024-04-24T00:16:30.103Z,100055.23
2024-04-24T00:21:32.897Z,100055.57
2024-04-24T00:26:35.571Z,100048.67
2024-04-24T00:31:38.257Z,100048.84
2024-04-24T00:36:40.894Z,100043.66
2024-04-24T00:41:43.536Z,100040.88
2024-04-24T00:46:47.564Z,100033.98
2024-04-24T00:51:50.329Z,100026.06
2024-04-24T00:56:53.072Z,100023.81
2024-04-24T01:01:56.360Z,100015.73
2024-04-24T01:06:59.060Z,100009.20
2024-04-24T01:12:01.773Z,100005.42
2024-04-24T01:17:06.875Z,99999.05
2024-04-24T01:22:15.539Z,99992.67
2024-04-24T01:27:18.219Z,99982.17
2024-04-24T01:32:20.990Z,99974.78
2024-04-24T01:37:23.786Z,99965.83
2024-04-24T01:42:26.449Z,99961.70
2024-04-24T01:47:29.132Z,99949.16
2024-04-24T01:52:31.729Z,99940.41
2024-04-24T01:57:34.339Z,99933.53
2024-04-24T02:02:37.079Z,99915.13
2024-04-24T02:07:39.754Z,99913.06
2024-04-24T02:12:42.436Z,99906.70
2024-04-24T02:17:45.183Z,99902.56
2024-04-24T02:22:47.913Z,99897.23
2024-04-24T02:27:50.541Z,99891.73
2024-04-24T02:32:53.815Z,99885.55
2024-04-24T02:37:56.674Z,99885.55
2024-04-24T02:42:59.383Z,99882.80
2024-04-24T02:48:02.134Z,99879.19
2024-04-24T02:53:04.873Z,99879.02
2024-04-24T02:58:07.683Z,99876.61
2024-04-24T03:03:10.506Z,99869.56
2024-04-24T03:08:13.387Z,99860.27
2024-04-24T03:13:16.160Z,99855.80
2024-04-24T03:18:18.980Z,99846.86
2024-04-24T03:23:21.753Z,99836.19
2024-04-24T03:28:24.487Z,99829.66
2024-04-24T03:33:27.248Z,99823.65
2024-04-24T03:38:30.254Z,99820.89
2024-04-24T03:43:32.825Z,99809.37
2024-04-24T03:48:37.477Z,99799.22
2024-04-24T03:53:41.377Z,99791.65
2024-04-24T03:58:46.361Z,99787.17
2024-04-24T04:03:53.676Z,99779.06
2024-04-24T04:08:56.618Z,99776.61
2024-04-24T04:13:59.286Z,99781.58
2024-04-24T04:19:01.932Z,99778.27
2024-04-24T04:24:04.641Z,99765.42
2024-04-24T04:29:08.335Z,99762.95
2024-04-24T04:34:11.346Z,99761.39
2024-04-24T04:39:14.463Z,99755.69
2024-04-24T04:44:17.189Z,99750.16
2024-04-24T04:49:20.467Z,99746.73
2024-04-24T04:54:23.083Z,99741.73
2024-04-24T04:59:26.828Z,99742.56
2024-04-24T05:04:29.541Z,99738.73
2024-04-24T05:09:33.488Z,99728.23
2024-04-24T05:14:36.271Z,99719.89
2024-04-24T05:19:38.886Z,99714.90
2024-04-24T05:24:41.545Z,99711.29
2024-04-24T05:29:44.227Z,99706.19
2024-04-24T05:34:46.868Z,99705.49
2024-04-24T05:39:49.652Z,99699.03
2024-04-24T05:44:52.272Z,99692.23
2024-04-24T05:49:56.547Z,99691.59
2024-04-24T05:54:59.352Z,99692.86
2024-04-24T06:00:02.138Z,99681.00
2024-04-24T06:05:05.469Z,99679.54
2024-04-24T06:10:08.859Z,99674.45
2024-04-24T06:15:18.647Z,99663.68
2024-04-24T06:20:23.207Z,99654.52
2024-04-24T06:25:25.873Z,99648.57
2024-04-24T06:30:28.655Z,99639.20
2024-04-24T06:35:37.239Z,99635.80
2024-04-24T06:40:43.383Z,99627.91
2024-04-24T06:45:46.716Z,99626.60
2024-04-24T06:50:50.205Z,99629.58
2024-04-24T06:55:53.580Z,99623.65
2024-04-24T07:00:57.545Z,99624.34
2024-04-24T07:06:00.440Z,99623.23
2024-04-24T07:11:03.394Z,99623.17
2024-04-24T07:16:06.528Z,99622.65
2024-04-24T07:21:09.395Z,99620.20
2024-04-24T07:26:12.073Z,99614.66
2024-04-24T07:31:15.278Z,99618.02
2024-04-24T07:36:18.745Z,99619.27
2024-04-24T07:41:21.631Z,99606.04
2024-04-24T07:46:30.917Z,99602.17
2024-04-24T07:51:33.608Z,99595.86
2024-04-24T07:56:36.358Z,99594.27
2024-04-24T08:01:39.469Z,99593.05
2024-04-24T08:06:42.525Z,99598.65
2024-04-24T08:11:45.458Z,99591.05
2024-04-24T08:16:49.934Z,99586.33
2024-04-24T08:21:56.887Z,99571.33
2024-04-24T08:26:59.619Z,99566.58
2024-04-24T08:32:03.049Z,99566.13
2024-04-24T08:37:05.852Z,99551.90
2024-04-24T08:42:09.322Z,99544.36
2024-04-24T08:47:14.228Z,99544.83
2024-04-24T08:52:22.064Z,99542.23
2024-04-24T08:57:27.704Z,99537.87
2024-04-24T09:02:33.993Z,99538.46
2024-04-24T09:07:39.972Z,99526.23
2024-04-24T09:12:45.828Z,99515.88
2024-04-24T09:17:50.839Z,99516.86
2024-04-24T09:22:54.470Z,99517.06
2024-04-24T09:27:57.736Z,99508.42
2024-04-24T09:33:01.079Z,99508.19
2024-04-24T09:38:06.903Z,99502.26
2024-04-24T09:43:09.973Z,99491.45
2024-04-24T09:48:24.567Z,99487.21
2024-04-24T09:53:30.256Z,99492.75
2024-04-24T09:58:35.951Z,99485.59
2024-04-24T10:03:40.900Z,99482.92
2024-04-24T10:08:45.027Z,99474.77
2024-04-24T10:13:51.464Z,99455.84
2024-04-24T10:18:56.467Z,99452.17
2024-04-24T10:24:03.171Z,99441.83
2024-04-24T10:29:13.120Z,99431.36
2024-04-24T10:34:16.933Z,99425.80
2024-04-24T10:39:20.661Z,99431.90
2024-04-24T10:44:24.264Z,99432.13
2024-04-24T10:49:30.442Z,99424.53
2024-04-24T10:54:33.600Z,99424.73
2024-04-24T10:59:44.268Z,99422.83
2024-04-24T11:04:51.789Z,99420.40
2024-04-24T11:09:55.253Z,99410.42
2024-04-24T11:15:00.232Z,99414.55
2024-04-24T11:20:04.335Z,99406.38
2024-04-24T11:25:11.243Z,99396.08
2024-04-24T11:30:18.971Z,99392.61
2024-04-24T11:35:26.518Z,99391.35
2024-04-24T11:40:38.223Z,99386.61
2024-04-24T11:45:43.912Z,99378.05
2024-04-24T11:50:55.178Z,99371.80
2024-04-24T11:55:59.621Z,99373.66
2024-04-24T12:01:03.211Z,99363.11
2024-04-24T12:06:06.299Z,99364.52
2024-04-24T12:11:09.849Z,99359.72
2024-04-24T12:16:12.826Z,99355.52
2024-04-24T12:21:17.131Z,99346.06
2024-04-24T12:26:21.157Z,99342.52
2024-04-24T12:31:25.103Z,99336.27
2024-04-24T12:36:28.672Z,99333.42
2024-04-24T12:41:31.782Z,99329.95
2024-04-24T12:46:37.245Z,99324.04
2024-04-24T12:51:41.533Z,99323.80
2024-04-24T12:56:44.427Z,99313.80
2024-04-24T13:01:47.049Z,99306.61
2024-04-24T13:06:49.774Z,99298.47
2024-04-24T13:11:52.648Z,99293.17
2024-04-24T13:17:02.584Z,99280.63
2024-04-24T13:22:06.631Z,99271.23
2024-04-24T13:27:09.883Z,99269.56
2024-04-24T13:32:12.648Z,99263.96
2024-04-24T13:37:16.577Z,99254.84
2024-04-24T13:42:19.536Z,99252.15
2024-04-24T13:47:22.920Z,99250.77
2024-04-24T13:52:25.686Z,99244.98
2024-04-24T13:57:29.612Z,99234.89
2024-04-24T14:02:35.266Z,99237.48
2024-04-24T14:07:39.486Z,99230.19
2024-04-24T14:12:43.055Z,99226.66
2024-04-24T14:17:46.053Z,99222.33
2024-04-24T14:22:49.518Z,99221.91
2024-04-24T14:27:52.295Z,99216.98
2024-04-24T14:32:55.417Z,99208.51
2024-04-24T14:37:59.027Z,99210.63
2024-04-24T14:43:01.704Z,99201.89
2024-04-24T14:48:06.329Z,99194.23
2024-04-24T14:53:09.039Z,99187.27
2024-04-24T14:58:13.177Z,99181.11
2024-04-24T15:03:18.432Z,99175.24
2024-04-24T15:08:25.243Z,99172.34
2024-04-24T15:13:28.412Z,99166.31
2024-04-24T15:18:35.584Z,99163.52
2024-04-24T15:23:38.360Z,99160.48
2024-04-24T15:28:41.691Z,99154.61
2024-04-24T15:33:44.580Z,99159.02
2024-04-24T15:38:48.939Z,99148.80
2024-04-24T15:43:51.891Z,99145.04
2024-04-24T15:48:59.735Z,99144.64
2024-04-24T15:54:03.206Z,99135.42
2024-04-24T15:59:06.453Z,99129.79
2024-04-24T16:04:09.786Z,99122.94
2024-04-24T16:09:12.626Z,99115.70
2024-04-24T16:14:17.006Z,99117.34
2024-04-24T16:19:21.653Z,99116.84
2024-04-24T16:24:24.408Z,99114.83
2024-04-24T16:29:27.728Z,99106.33
2024-04-24T16:34:31.617Z,99104.55
2024-04-24T16:39:35.034Z,99100.85
2024-04-24T16:44:37.694Z,99101.19
2024-04-24T16:49:42.337Z,99099.30
2024-04-24T16:54:46.836Z,99100.06
2024-04-24T16:59:49.561Z,99095.77
2024-04-24T17:04:53.549Z,99092.47
2024-04-24T17:10:06.703Z,99089.38
2024-04-24T17:15:13.627Z,99091.91
2024-04-24T17:20:17.554Z,99090.15
2024-04-24T17:25:20.707Z,99086.48
2024-04-24T17:30:23.320Z,99093.02
2024-04-24T17:35:26.609Z,99094.08
2024-04-24T17:40:32.485Z,99091.65
2024-04-24T17:45:35.171Z,99092.55
2024-04-24T17:50:38.035Z,99092.19
2024-04-24T17:55:40.869Z,99088.09
2024-04-24T18:00:44.928Z,99090.81
2024-04-24T18:05:48.163Z,99087.67
2024-04-24T18:10:50.920Z,99083.24
2024-04-24T18:15:54.213Z,99082.20
2024-04-24T18:20:57.015Z,99085.55
2024-04-24T18:25:59.946Z,99082.83
2024-04-24T18:31:03.174Z,99089.68
2024-04-24T18:36:07.339Z,99093.47
2024-04-24T18:41:12.455Z,99096.09
2024-04-24T18:46:16.763Z,99096.82
2024-04-24T18:51:21.430Z,99102.27
2024-04-24T18:56:24.707Z,99104.70
2024-04-24T19:01:30.474Z,99101.90
2024-04-24T19:06:35.989Z,99105.17
2024-04-24T19:11:40.347Z,99105.61
2024-04-24T19:16:43.302Z,99105.92
2024-04-24T19:21:46.052Z,99105.08
2024-04-24T19:26:48.952Z,99099.16
2024-04-24T19:31:51.746Z,99099.42
2024-04-24T19:36:54.781Z,99097.27
2024-04-24T19:41:57.448Z,99094.48
2024-04-24T19:47:00.290Z,99093.60
2024-04-24T19:52:04.532Z,99093.81
2024-04-24T19:57:07.281Z,99096.42
2024-04-24T20:02:10.488Z,99099.25
2024-04-24T20:07:15.757Z,99096.39
2024-04-24T20:12:18.887Z,99093.76
2024-04-24T20:17:22.663Z,99089.09
2024-04-24T20:22:25.820Z,99087.75
2024-04-24T20:27:28.651Z,99083.50
2024-04-24T20:32:32.174Z,99081.53
2024-04-24T20:37:34.955Z,99070.91
2024-04-24T20:42:38.127Z,99061.72
2024-04-24T20:47:40.915Z,99061.08
2024-04-24T20:52:45.499Z,99058.36
2024-04-24T20:57:48.193Z,99052.84
2024-04-24T21:02:50.924Z,99048.20
2024-04-24T21:07:55.704Z,99045.70
2024-04-24T21:13:01.134Z,99048.92
2024-04-24T21:18:04.353Z,99052.18
2024-04-24T21:23:09.569Z,99046.75
2024-04-24T21:28:14.482Z,99047.30
2024-04-24T21:33:19.421Z,99051.16
2024-04-24T21:38:22.158Z,99055.66
2024-04-24T21:43:27.198Z,99057.09
2024-04-24T21:48:29.881Z,99058.79
2024-04-24T21:53:33.820Z,99061.02
2024-04-24T21:58:36.891Z,99063.33
2024-04-24T22:03:39.596Z,99064.40
2024-04-24T22:08:42.335Z,99063.17
2024-04-24T22:13:45.124Z,99063.17
2024-04-24T22:18:48.245Z,99054.77
2024-04-24T22:23:51.079Z,99050.44
2024-04-24T22:28:53.699Z,99044.73
2024-04-24T22:33:56.327Z,99039.46
2024-04-24T22:38:58.952Z,99039.38
2024-04-24T22:44:01.685Z,99043.69
2024-04-24T22:49:08.515Z,99037.74
2024-04-24T22:54:11.190Z,99034.63
2024-04-24T22:59:17.669Z,99035.92
2024-04-24T23:04:21.659Z,99037.48
2024-04-24T23:09:24.368Z,99039.35
2024-04-24T23:14:27.710Z,99045.27
2024-04-24T23:19:30.333Z,99035.16
2024-04-24T23:24:32.955Z,99027.66
2024-04-24T23:29:35.706Z,99026.89
2024-04-24T23:34:38.340Z,99028.68
2024-04-24T23:39:41.376Z,99032.14
2024-04-24T23:44:44.082Z,99028.08
2024-04-24T23:49:46.731Z,99031.67
2024-04-24T23:54:49.375Z,99025.40
2024-04-24T23:59:52.676Z,99023.47
